Glenmont, Ohio
Current Conditions -  °F | °C
As of 8:36 AM on Friday 19 Dec 2014 (Local Time) from K4I3 Reporting Station
Haze Haze  
Wind Chill: 20°   Ceiling: 1900
Heat Index: 28°   Visibility: 4mi
Dew Point: 25°   Wind: 8mph
Humidity: 86%   Direction: 290°WNW
Pressure: 30.23"   Gusts: NA
Location:  40.52°N, 82.1°W
Report Text: K4I3 191336Z AUTO 29007KT 4SM BR SCT009 OVC019 M02/M04 A3023 RMK AO2
Loading
Personal Weather Stations






























Interactive Weather Map New forecast layout! Learn more

10-Day Weather Forecast

Advertisements
Track Severe Weather on mobile